sensor_id;sensor_type;location;lat;lon;timestamp;pressure;altitude;pressure_sealevel;temperature;humidity
26711;BME280;18311;52.754;18.118;2023-01-31T00:00:53;99490.94;;;13.71;56.03
26711;BME280;18311;52.754;18.118;2023-01-31T00:03:25;99488.87;;;14.83;53.48
26711;BME280;18311;52.754;18.118;2023-01-31T00:05:56;99496.66;;;14.39;54.37
26711;BME280;18311;52.754;18.118;2023-01-31T00:08:26;99482.09;;;14.06;55.79
26711;BME280;18311;52.754;18.118;2023-01-31T00:10:58;99503.91;;;14.50;53.23
26711;BME280;18311;52.754;18.118;2023-01-31T00:13:29;99507.48;;;14.50;52.90
26711;BME280;18311;52.754;18.118;2023-01-31T00:16:00;99512.50;;;13.33;55.79
26711;BME280;18311;52.754;18.118;2023-01-31T00:18:32;99510.19;;;14.26;53.14
26711;BME280;18311;52.754;18.118;2023-01-31T00:21:09;99511.23;;;14.48;51.79
26711;BME280;18311;52.754;18.118;2023-01-31T00:23:41;99522.99;;;13.98;54.33
26711;BME280;18311;52.754;18.118;2023-01-31T00:26:18;99523.84;;;14.71;52.31
26711;BME280;18311;52.754;18.118;2023-01-31T00:28:52;99543.74;;;14.45;52.31
26711;BME280;18311;52.754;18.118;2023-01-31T00:31:24;99537.80;;;14.04;53.50
26711;BME280;18311;52.754;18.118;2023-01-31T00:33:56;99543.92;;;14.06;52.44
26711;BME280;18311;52.754;18.118;2023-01-31T00:36:29;99546.81;;;14.64;52.19
26711;BME280;18311;52.754;18.118;2023-01-31T00:39:02;99546.22;;;14.72;51.56
26711;BME280;18311;52.754;18.118;2023-01-31T00:41:35;99556.56;;;14.41;52.66
26711;BME280;18311;52.754;18.118;2023-01-31T00:44:08;99560.41;;;14.02;52.56
26711;BME280;18311;52.754;18.118;2023-01-31T00:46:39;99561.61;;;14.22;52.42
26711;BME280;18311;52.754;18.118;2023-01-31T00:49:09;99571.67;;;13.57;53.90
26711;BME280;18311;52.754;18.118;2023-01-31T00:51:40;99562.75;;;14.30;52.76
26711;BME280;18311;52.754;18.118;2023-01-31T00:54:11;99589.80;;;13.66;53.88
26711;BME280;18311;52.754;18.118;2023-01-31T00:56:41;99581.02;;;14.62;52.16
26711;BME280;18311;52.754;18.118;2023-01-31T00:59:13;99588.32;;;14.36;51.98
26711;BME280;18311;52.754;18.118;2023-01-31T01:01:44;99582.90;;;14.25;52.00
26711;BME280;18311;52.754;18.118;2023-01-31T01:04:15;99584.13;;;13.19;54.57
26711;BME280;18311;52.754;18.118;2023-01-31T01:06:46;99595.31;;;13.52;53.31
26711;BME280;18311;52.754;18.118;2023-01-31T01:09:18;99594.56;;;13.50;53.03
26711;BME280;18311;52.754;18.118;2023-01-31T01:11:52;99592.66;;;14.02;51.80
26711;BME280;18311;52.754;18.118;2023-01-31T01:14:23;99595.88;;;14.07;52.20
26711;BME280;18311;52.754;18.118;2023-01-31T01:16:53;99595.23;;;14.03;51.92
26711;BME280;18311;52.754;18.118;2023-01-31T01:19:25;99595.36;;;14.50;50.19
26711;BME280;18311;52.754;18.118;2023-01-31T01:21:56;99602.06;;;13.57;52.67
26711;BME280;18311;52.754;18.118;2023-01-31T01:24:26;99609.92;;;14.47;51.05
26711;BME280;18311;52.754;18.118;2023-01-31T01:26:57;99600.72;;;14.02;51.64
26711;BME280;18311;52.754;18.118;2023-01-31T01:29:28;99608.30;;;14.45;50.43
26711;BME280;18311;52.754;18.118;2023-01-31T01:31:59;99615.23;;;13.99;52.08
26711;BME280;18311;52.754;18.118;2023-01-31T01:34:30;99616.12;;;14.24;51.22
26711;BME280;18311;52.754;18.118;2023-01-31T01:37:01;99631.72;;;12.77;53.77
26711;BME280;18311;52.754;18.118;2023-01-31T01:39:33;99632.77;;;13.92;51.85
26711;BME280;18311;52.754;18.118;2023-01-31T01:42:05;99637.52;;;13.63;52.41
26711;BME280;18311;52.754;18.118;2023-01-31T01:47:22;99639.23;;;13.76;51.71
26711;BME280;18311;52.754;18.118;2023-01-31T01:49:58;99628.01;;;14.45;50.03
26711;BME280;18311;52.754;18.118;2023-01-31T01:52:33;99639.56;;;13.59;51.93
26711;BME280;18311;52.754;18.118;2023-01-31T01:57:59;99654.84;;;13.46;51.24
26711;BME280;18311;52.754;18.118;2023-01-31T02:00:30;99641.43;;;14.08;50.39
26711;BME280;18311;52.754;18.118;2023-01-31T02:03:06;99650.98;;;13.10;51.51
26711;BME280;18311;52.754;18.118;2023-01-31T02:05:48;99637.30;;;13.91;50.72
26711;BME280;18311;52.754;18.118;2023-01-31T02:08:21;99653.13;;;14.20;50.37
26711;BME280;18311;52.754;18.118;2023-01-31T02:10:59;99660.92;;;13.99;51.26
26711;BME280;18311;52.754;18.118;2023-01-31T02:13:27;99663.54;;;13.49;51.61
26711;BME280;18311;52.754;18.118;2023-01-31T02:15:59;99656.88;;;13.81;51.68
26711;BME280;18311;52.754;18.118;2023-01-31T02:18:30;99663.92;;;13.30;51.34
26711;BME280;18311;52.754;18.118;2023-01-31T02:27:22;99673.20;;;13.77;51.50
26711;BME280;18311;52.754;18.118;2023-01-31T02:30:15;99663.09;;;14.44;50.43
26711;BME280;18311;52.754;18.118;2023-01-31T02:41:17;99704.69;;;13.22;52.83
26711;BME280;18311;52.754;18.118;2023-01-31T02:43:52;99700.66;;;13.30;53.36
26711;BME280;18311;52.754;18.118;2023-01-31T02:50:04;99697.14;;;12.75;53.03
26711;BME280;18311;52.754;18.118;2023-01-31T02:52:52;99700.81;;;13.92;50.83
26711;BME280;18311;52.754;18.118;2023-01-31T02:55:31;99712.53;;;13.13;52.73
26711;BME280;18311;52.754;18.118;2023-01-31T02:58:16;99726.05;;;13.11;52.99
26711;BME280;18311;52.754;18.118;2023-01-31T03:00:48;99741.50;;;13.08;52.58
26711;BME280;18311;52.754;18.118;2023-01-31T03:03:23;99736.02;;;13.36;51.90
26711;BME280;18311;52.754;18.118;2023-01-31T03:11:45;99754.48;;;14.07;50.16
26711;BME280;18311;52.754;18.118;2023-01-31T03:14:33;99777.21;;;13.63;51.01
26711;BME280;18311;52.754;18.118;2023-01-31T03:17:22;99761.77;;;13.79;49.67
26711;BME280;18311;52.754;18.118;2023-01-31T03:22:55;99817.58;;;13.48;50.68
26711;BME280;18311;52.754;18.118;2023-01-31T03:25:27;99794.72;;;13.55;50.77
26711;BME280;18311;52.754;18.118;2023-01-31T03:28:01;99794.52;;;13.04;51.35
26711;BME280;18311;52.754;18.118;2023-01-31T03:33:24;99800.45;;;13.76;49.80
26711;BME280;18311;52.754;18.118;2023-01-31T03:38:50;99802.23;;;13.23;50.98
26711;BME280;18311;52.754;18.118;2023-01-31T03:41:30;99807.45;;;14.43;48.76
26711;BME280;18311;52.754;18.118;2023-01-31T03:44:09;99806.61;;;14.04;49.55
26711;BME280;18311;52.754;18.118;2023-01-31T03:46:45;99822.86;;;13.50;50.32
26711;BME280;18311;52.754;18.118;2023-01-31T03:49:18;99827.93;;;13.54;50.57
26711;BME280;18311;52.754;18.118;2023-01-31T03:51:53;99839.20;;;14.00;49.36
26711;BME280;18311;52.754;18.118;2023-01-31T03:54:26;99851.38;;;13.65;49.84
26711;BME280;18311;52.754;18.118;2023-01-31T03:57:03;99855.54;;;13.96;50.04
26711;BME280;18311;52.754;18.118;2023-01-31T03:59:37;99845.91;;;13.67;49.45
26711;BME280;18311;52.754;18.118;2023-01-31T04:02:12;99848.08;;;13.87;49.66
26711;BME280;18311;52.754;18.118;2023-01-31T04:04:59;99848.23;;;13.98;48.98
26711;BME280;18311;52.754;18.118;2023-01-31T04:07:25;99848.89;;;12.79;51.42
26711;BME280;18311;52.754;18.118;2023-01-31T04:09:57;99848.45;;;12.72;51.01
26711;BME280;18311;52.754;18.118;2023-01-31T04:12:29;99835.46;;;13.62;49.28
26711;BME280;18311;52.754;18.118;2023-01-31T04:15:02;99833.80;;;13.47;49.29
26711;BME280;18311;52.754;18.118;2023-01-31T04:17:33;99846.42;;;13.17;49.33
26711;BME280;18311;52.754;18.118;2023-01-31T04:20:04;99840.34;;;13.43;49.18
26711;BME280;18311;52.754;18.118;2023-01-31T04:22:35;99828.87;;;14.06;47.96
26711;BME280;18311;52.754;18.118;2023-01-31T04:25:07;99843.13;;;13.41;48.45
26711;BME280;18311;52.754;18.118;2023-01-31T04:27:38;99847.29;;;13.59;49.29
26711;BME280;18311;52.754;18.118;2023-01-31T04:30:10;99840.25;;;13.84;48.01
26711;BME280;18311;52.754;18.118;2023-01-31T04:32:40;99846.48;;;13.97;47.98
26711;BME280;18311;52.754;18.118;2023-01-31T04:35:11;99833.27;;;13.27;48.41
26711;BME280;18311;52.754;18.118;2023-01-31T04:37:42;99862.06;;;13.52;48.29
26711;BME280;18311;52.754;18.118;2023-01-31T04:40:12;99870.48;;;13.19;48.51
26711;BME280;18311;52.754;18.118;2023-01-31T04:42:43;99874.91;;;13.20;48.78
26711;BME280;18311;52.754;18.118;2023-01-31T04:45:13;99879.08;;;12.97;48.83
26711;BME280;18311;52.754;18.118;2023-01-31T04:47:44;99893.54;;;12.94;48.64
26711;BME280;18311;52.754;18.118;2023-01-31T04:50:16;99884.73;;;12.35;49.99
26711;BME280;18311;52.754;18.118;2023-01-31T04:52:50;99896.43;;;12.77;49.17
26711;BME280;18311;52.754;18.118;2023-01-31T04:55:21;99901.13;;;12.73;49.57
26711;BME280;18311;52.754;18.118;2023-01-31T04:57:52;99883.28;;;14.10;47.18
26711;BME280;18311;52.754;18.118;2023-01-31T05:00:22;99897.45;;;13.59;48.36
26711;BME280;18311;52.754;18.118;2023-01-31T05:02:53;99905.11;;;13.65;48.58
26711;BME280;18311;52.754;18.118;2023-01-31T05:05:24;99906.88;;;13.52;48.08
26711;BME280;18311;52.754;18.118;2023-01-31T05:07:55;99901.75;;;13.20;49.07
26711;BME280;18311;52.754;18.118;2023-01-31T05:10:25;99927.01;;;12.60;49.89
26711;BME280;18311;52.754;18.118;2023-01-31T05:12:56;99928.53;;;12.78;50.51
26711;BME280;18311;52.754;18.118;2023-01-31T05:15:26;99918.46;;;13.11;49.21
26711;BME280;18311;52.754;18.118;2023-01-31T05:17:57;99930.05;;;12.82;49.93
26711;BME280;18311;52.754;18.118;2023-01-31T05:20:35;99929.36;;;13.36;48.73
26711;BME280;18311;52.754;18.118;2023-01-31T05:23:07;99925.58;;;12.69;51.29
26711;BME280;18311;52.754;18.118;2023-01-31T05:25:37;99933.59;;;13.12;49.49
26711;BME280;18311;52.754;18.118;2023-01-31T05:28:08;99937.83;;;12.87;49.48
26711;BME280;18311;52.754;18.118;2023-01-31T05:30:40;99937.81;;;13.01;49.17
26711;BME280;18311;52.754;18.118;2023-01-31T05:33:12;99945.47;;;13.22;49.13
26711;BME280;18311;52.754;18.118;2023-01-31T05:35:42;99946.94;;;12.99;49.67
26711;BME280;18311;52.754;18.118;2023-01-31T05:38:13;99960.06;;;12.30;50.90
26711;BME280;18311;52.754;18.118;2023-01-31T05:40:44;99972.80;;;12.85;49.89
26711;BME280;18311;52.754;18.118;2023-01-31T05:43:15;99957.14;;;12.49;50.17
26711;BME280;18311;52.754;18.118;2023-01-31T05:45:47;99944.62;;;12.19;50.44
26711;BME280;18311;52.754;18.118;2023-01-31T05:48:18;99969.17;;;12.87;50.37
26711;BME280;18311;52.754;18.118;2023-01-31T05:50:50;99971.51;;;11.24;52.73
26711;BME280;18311;52.754;18.118;2023-01-31T05:53:20;99970.31;;;13.11;49.46
26711;BME280;18311;52.754;18.118;2023-01-31T05:55:51;99976.71;;;13.52;48.74
26711;BME280;18311;52.754;18.118;2023-01-31T05:58:22;99976.59;;;12.53;50.12
26711;BME280;18311;52.754;18.118;2023-01-31T06:00:54;99985.44;;;12.55;49.67
26711;BME280;18311;52.754;18.118;2023-01-31T06:03:25;99980.97;;;12.98;49.47
26711;BME280;18311;52.754;18.118;2023-01-31T06:05:56;100001.03;;;11.86;51.04
26711;BME280;18311;52.754;18.118;2023-01-31T06:08:27;100005.56;;;12.62;50.10
26711;BME280;18311;52.754;18.118;2023-01-31T06:11:02;99993.17;;;12.59;49.63
26711;BME280;18311;52.754;18.118;2023-01-31T06:13:33;99979.91;;;12.87;49.41
26711;BME280;18311;52.754;18.118;2023-01-31T06:16:05;100020.00;;;12.59;49.55
26711;BME280;18311;52.754;18.118;2023-01-31T06:18:36;100010.09;;;12.45;49.38
26711;BME280;18311;52.754;18.118;2023-01-31T06:21:07;100010.86;;;12.92;49.31
26711;BME280;18311;52.754;18.118;2023-01-31T06:23:37;100015.20;;;13.38;48.79
26711;BME280;18311;52.754;18.118;2023-01-31T06:26:08;100033.50;;;12.58;49.61
26711;BME280;18311;52.754;18.118;2023-01-31T06:28:39;100026.47;;;12.85;49.69
26711;BME280;18311;52.754;18.118;2023-01-31T06:31:10;100044.05;;;12.61;49.46
26711;BME280;18311;52.754;18.118;2023-01-31T06:33:41;100040.19;;;12.51;49.96
26711;BME280;18311;52.754;18.118;2023-01-31T06:36:14;100061.55;;;12.22;50.52
26711;BME280;18311;52.754;18.118;2023-01-31T06:38:50;100054.19;;;12.25;50.77
26711;BME280;18311;52.754;18.118;2023-01-31T06:41:21;100061.80;;;12.17;51.32
26711;BME280;18311;52.754;18.118;2023-01-31T06:43:52;100062.56;;;12.65;49.52
26711;BME280;18311;52.754;18.118;2023-01-31T06:46:23;100056.28;;;12.81;50.31
26711;BME280;18311;52.754;18.118;2023-01-31T06:48:54;100058.23;;;13.22;48.93
26711;BME280;18311;52.754;18.118;2023-01-31T06:51:25;100060.06;;;12.62;50.65
26711;BME280;18311;52.754;18.118;2023-01-31T06:53:56;100063.00;;;12.88;49.51
26711;BME280;18311;52.754;18.118;2023-01-31T06:56:26;100072.19;;;12.23;51.07
26711;BME280;18311;52.754;18.118;2023-01-31T06:58:57;100085.98;;;12.32;50.67
26711;BME280;18311;52.754;18.118;2023-01-31T07:01:27;100090.10;;;12.83;49.87
26711;BME280;18311;52.754;18.118;2023-01-31T07:03:58;100084.37;;;12.90;49.39
26711;BME280;18311;52.754;18.118;2023-01-31T07:06:29;100083.91;;;12.37;50.80
26711;BME280;18311;52.754;18.118;2023-01-31T07:09:00;100073.73;;;12.88;49.54
26711;BME280;18311;52.754;18.118;2023-01-31T07:11:30;100096.56;;;12.19;50.33
26711;BME280;18311;52.754;18.118;2023-01-31T07:14:01;100094.53;;;12.84;49.27
26711;BME280;18311;52.754;18.118;2023-01-31T07:16:31;100100.64;;;12.56;49.24
26711;BME280;18311;52.754;18.118;2023-01-31T07:19:02;100104.13;;;12.58;49.00
26711;BME280;18311;52.754;18.118;2023-01-31T07:21:33;100116.52;;;12.75;49.92
26711;BME280;18311;52.754;18.118;2023-01-31T07:24:05;100136.99;;;12.62;49.92
26711;BME280;18311;52.754;18.118;2023-01-31T07:26:36;100125.63;;;12.73;49.14
26711;BME280;18311;52.754;18.118;2023-01-31T07:29:12;100126.57;;;12.72;50.10
26711;BME280;18311;52.754;18.118;2023-01-31T07:31:40;100127.12;;;13.66;47.53
26711;BME280;18311;52.754;18.118;2023-01-31T07:34:11;100133.50;;;13.20;48.49
26711;BME280;18311;52.754;18.118;2023-01-31T07:36:41;100134.94;;;12.51;49.36
26711;BME280;18311;52.754;18.118;2023-01-31T07:39:15;100156.91;;;12.42;49.89
26711;BME280;18311;52.754;18.118;2023-01-31T07:41:52;100136.81;;;12.95;48.92
26711;BME280;18311;52.754;18.118;2023-01-31T07:44:23;100135.55;;;12.87;48.55
26711;BME280;18311;52.754;18.118;2023-01-31T07:46:53;100142.86;;;13.44;47.82
26711;BME280;18311;52.754;18.118;2023-01-31T07:49:24;100147.92;;;12.43;49.80
26711;BME280;18311;52.754;18.118;2023-01-31T07:51:55;100147.73;;;12.92;48.50
26711;BME280;18311;52.754;18.118;2023-01-31T07:54:26;100135.40;;;13.04;47.44
26711;BME280;18311;52.754;18.118;2023-01-31T07:56:57;100123.53;;;12.78;48.21
26711;BME280;18311;52.754;18.118;2023-01-31T07:59:28;100139.90;;;12.11;49.42
26711;BME280;18311;52.754;18.118;2023-01-31T08:02:00;100140.56;;;13.37;47.92
26711;BME280;18311;52.754;18.118;2023-01-31T08:04:52;100150.25;;;12.33;49.34
26711;BME280;18311;52.754;18.118;2023-01-31T08:07:25;100142.27;;;12.47;48.82
26711;BME280;18311;52.754;18.118;2023-01-31T08:09:56;100140.30;;;13.12;47.00
26711;BME280;18311;52.754;18.118;2023-01-31T08:12:27;100130.23;;;13.15;47.35
26711;BME280;18311;52.754;18.118;2023-01-31T08:14:57;100135.77;;;13.71;46.21
26711;BME280;18311;52.754;18.118;2023-01-31T08:17:28;100156.92;;;12.88;47.05
26711;BME280;18311;52.754;18.118;2023-01-31T08:20:04;100150.36;;;13.08;46.90
26711;BME280;18311;52.754;18.118;2023-01-31T08:22:33;100165.70;;;13.06;46.05
26711;BME280;18311;52.754;18.118;2023-01-31T08:25:04;100169.45;;;12.88;47.33
26711;BME280;18311;52.754;18.118;2023-01-31T08:27:35;100161.47;;;13.02;46.16
26711;BME280;18311;52.754;18.118;2023-01-31T08:30:07;100174.24;;;13.57;45.18
26711;BME280;18311;52.754;18.118;2023-01-31T08:32:38;100157.85;;;12.57;46.76
26711;BME280;18311;52.754;18.118;2023-01-31T08:42:12;100169.35;;;13.78;44.25
26711;BME280;18311;52.754;18.118;2023-01-31T08:44:43;100168.68;;;13.75;45.00
26711;BME280;18311;52.754;18.118;2023-01-31T08:47:13;100190.06;;;13.33;44.83
26711;BME280;18311;52.754;18.118;2023-01-31T08:49:44;100176.55;;;12.58;45.89
26711;BME280;18311;52.754;18.118;2023-01-31T08:52:15;100195.86;;;13.56;44.35
26711;BME280;18311;52.754;18.118;2023-01-31T08:54:46;100177.15;;;12.63;45.49
26711;BME280;18311;52.754;18.118;2023-01-31T08:57:18;100183.48;;;13.23;45.09
26711;BME280;18311;52.754;18.118;2023-01-31T08:59:49;100189.41;;;12.68;45.62
26711;BME280;18311;52.754;18.118;2023-01-31T09:02:20;100178.67;;;13.58;44.51
26711;BME280;18311;52.754;18.118;2023-01-31T09:04:50;100177.81;;;13.58;43.90
26711;BME280;18311;52.754;18.118;2023-01-31T09:07:21;100171.09;;;13.51;44.22
26711;BME280;18311;52.754;18.118;2023-01-31T09:09:51;100168.19;;;13.39;44.34
26711;BME280;18311;52.754;18.118;2023-01-31T09:12:22;100196.80;;;12.48;46.05
26711;BME280;18311;52.754;18.118;2023-01-31T09:14:54;100165.34;;;13.12;45.39
26711;BME280;18311;52.754;18.118;2023-01-31T09:17:25;100181.20;;;13.31;45.38
26711;BME280;18311;52.754;18.118;2023-01-31T09:19:56;100180.95;;;13.06;46.17
26711;BME280;18311;52.754;18.118;2023-01-31T09:22:30;100201.14;;;12.97;46.00
26711;BME280;18311;52.754;18.118;2023-01-31T09:25:02;100180.85;;;13.37;45.93
26711;BME280;18311;52.754;18.118;2023-01-31T09:27:33;100182.03;;;14.05;45.14
26711;BME280;18311;52.754;18.118;2023-01-31T09:30:07;100186.92;;;15.22;42.01
26711;BME280;18311;52.754;18.118;2023-01-31T09:32:38;100183.23;;;15.89;41.14
26711;BME280;18311;52.754;18.118;2023-01-31T09:35:09;100186.70;;;14.99;41.80
26711;BME280;18311;52.754;18.118;2023-01-31T09:37:41;100197.86;;;16.10;39.61
26711;BME280;18311;52.754;18.118;2023-01-31T09:40:15;100210.25;;;16.63;38.50
26711;BME280;18311;52.754;18.118;2023-01-31T09:42:46;100211.77;;;16.91;38.60
26711;BME280;18311;52.754;18.118;2023-01-31T09:45:33;100207.66;;;16.61;38.75
26711;BME280;18311;52.754;18.118;2023-01-31T09:48:06;100201.19;;;17.12;38.34
26711;BME280;18311;52.754;18.118;2023-01-31T09:50:42;100192.53;;;18.11;36.91
26711;BME280;18311;52.754;18.118;2023-01-31T09:53:19;100205.16;;;18.56;35.40
26711;BME280;18311;52.754;18.118;2023-01-31T09:58:54;100208.51;;;18.37;35.68
26711;BME280;18311;52.754;18.118;2023-01-31T10:07:00;100208.19;;;16.29;37.68
26711;BME280;18311;52.754;18.118;2023-01-31T10:09:39;100211.61;;;17.41;37.33
26711;BME280;18311;52.754;18.118;2023-01-31T10:12:23;100184.33;;;19.12;34.69
26711;BME280;18311;52.754;18.118;2023-01-31T10:14:57;100207.86;;;20.77;32.80
26711;BME280;18311;52.754;18.118;2023-01-31T10:17:44;100198.91;;;16.94;36.81
26711;BME280;18311;52.754;18.118;2023-01-31T10:20:20;100192.38;;;16.49;38.02
26711;BME280;18311;52.754;18.118;2023-01-31T10:28:22;100187.72;;;16.14;39.78
26711;BME280;18311;52.754;18.118;2023-01-31T10:31:03;100189.22;;;15.41;40.92
26711;BME280;18311;52.754;18.118;2023-01-31T10:33:47;100192.00;;;16.29;39.97
26711;BME280;18311;52.754;18.118;2023-01-31T10:39:01;100197.30;;;16.18;39.64
26711;BME280;18311;52.754;18.118;2023-01-31T10:41:38;100186.06;;;16.61;39.08
26711;BME280;18311;52.754;18.118;2023-01-31T10:44:26;100184.34;;;16.23;39.49
26711;BME280;18311;52.754;18.118;2023-01-31T10:46:57;100190.51;;;15.22;40.58
26711;BME280;18311;52.754;18.118;2023-01-31T10:49:29;100187.82;;;14.82;41.61
26711;BME280;18311;52.754;18.118;2023-01-31T10:52:22;100198.88;;;14.78;41.86
26711;BME280;18311;52.754;18.118;2023-01-31T10:57:48;100176.55;;;14.63;42.53
26711;BME280;18311;52.754;18.118;2023-01-31T11:00:28;100180.20;;;14.62;42.42
26711;BME280;18311;52.754;18.118;2023-01-31T11:02:59;100173.76;;;15.17;41.08
26711;BME280;18311;52.754;18.118;2023-01-31T11:05:29;100161.20;;;14.78;42.06
26711;BME280;18311;52.754;18.118;2023-01-31T11:08:05;100161.20;;;14.78;42.06
26711;BME280;18311;52.754;18.118;2023-01-31T11:10:40;100160.47;;;14.88;42.07
26711;BME280;18311;52.754;18.118;2023-01-31T11:13:10;100178.98;;;14.80;41.29
26711;BME280;18311;52.754;18.118;2023-01-31T11:15:43;100171.81;;;14.25;42.02
26711;BME280;18311;52.754;18.118;2023-01-31T11:21:00;100166.25;;;14.13;43.39
26711;BME280;18311;52.754;18.118;2023-01-31T11:23:32;100174.72;;;14.07;42.58
26711;BME280;18311;52.754;18.118;2023-01-31T11:26:04;100160.92;;;14.95;41.62
26711;BME280;18311;52.754;18.118;2023-01-31T11:28:38;100171.06;;;15.04;41.42
26711;BME280;18311;52.754;18.118;2023-01-31T11:31:24;100174.80;;;15.29;41.17
26711;BME280;18311;52.754;18.118;2023-01-31T11:36:40;100165.90;;;14.05;43.52
26711;BME280;18311;52.754;18.118;2023-01-31T11:41:56;100162.28;;;14.75;42.13
26711;BME280;18311;52.754;18.118;2023-01-31T11:44:28;100146.91;;;14.90;42.05
26711;BME280;18311;52.754;18.118;2023-01-31T11:47:03;100152.53;;;14.60;42.14
26711;BME280;18311;52.754;18.118;2023-01-31T11:49:46;100149.50;;;14.37;42.15
26711;BME280;18311;52.754;18.118;2023-01-31T11:52:20;100126.86;;;14.81;42.21
26711;BME280;18311;52.754;18.118;2023-01-31T11:54:53;100132.27;;;14.12;42.93
26711;BME280;18311;52.754;18.118;2023-01-31T11:57:38;100130.64;;;14.79;41.78
26711;BME280;18311;52.754;18.118;2023-01-31T12:00:16;100123.77;;;14.87;41.91
26711;BME280;18311;52.754;18.118;2023-01-31T12:02:38;100133.19;;;15.33;41.11
26711;BME280;18311;52.754;18.118;2023-01-31T12:05:15;100129.62;;;15.20;41.85
26711;BME280;18311;52.754;18.118;2023-01-31T12:07:51;100130.31;;;14.56;42.80
26711;BME280;18311;52.754;18.118;2023-01-31T12:10:32;100131.55;;;15.30;41.66
26711;BME280;18311;52.754;18.118;2023-01-31T12:13:13;100133.47;;;13.79;43.90
26711;BME280;18311;52.754;18.118;2023-01-31T12:16:01;100115.60;;;13.78;44.41
26711;BME280;18311;52.754;18.118;2023-01-31T12:18:52;100126.27;;;15.16;41.69
26711;BME280;18311;52.754;18.118;2023-01-31T12:35:49;100070.14;;;14.97;43.57
26711;BME280;18311;52.754;18.118;2023-01-31T12:41:14;100074.66;;;14.84;44.48
26711;BME280;18311;52.754;18.118;2023-01-31T12:46:56;100078.21;;;13.47;45.59
26711;BME280;18311;52.754;18.118;2023-01-31T12:58:31;100028.45;;;14.37;44.90
26711;BME280;18311;52.754;18.118;2023-01-31T13:01:09;100026.79;;;14.22;45.36
26711;BME280;18311;52.754;18.118;2023-01-31T13:04:06;100030.55;;;13.92;45.92
26711;BME280;18311;52.754;18.118;2023-01-31T13:06:41;100029.03;;;13.88;45.90
26711;BME280;18311;52.754;18.118;2023-01-31T13:09:24;100040.68;;;13.74;46.08
26711;BME280;18311;52.754;18.118;2023-01-31T13:12:10;100034.19;;;15.24;43.48
26711;BME280;18311;52.754;18.118;2023-01-31T13:14:42;100039.97;;;12.84;47.12
26711;BME280;18311;52.754;18.118;2023-01-31T13:17:20;100029.00;;;14.95;44.53
26711;BME280;18311;52.754;18.118;2023-01-31T13:20:00;100032.00;;;14.38;45.39
26711;BME280;18311;52.754;18.118;2023-01-31T13:22:40;100037.42;;;13.69;46.30
26711;BME280;18311;52.754;18.118;2023-01-31T13:25:14;100022.39;;;14.61;44.98
26711;BME280;18311;52.754;18.118;2023-01-31T13:27:46;100015.45;;;14.44;44.63
26711;BME280;18311;52.754;18.118;2023-01-31T13:30:22;100008.98;;;15.62;43.08
26711;BME280;18311;52.754;18.118;2023-01-31T13:32:54;100012.19;;;15.04;44.07
26711;BME280;18311;52.754;18.118;2023-01-31T13:35:37;100001.54;;;14.24;45.23
26711;BME280;18311;52.754;18.118;2023-01-31T13:38:14;100003.97;;;14.14;45.05
26711;BME280;18311;52.754;18.118;2023-01-31T13:40:52;99997.97;;;13.69;46.31
26711;BME280;18311;52.754;18.118;2023-01-31T13:43:24;99995.51;;;14.21;45.29
26711;BME280;18311;52.754;18.118;2023-01-31T13:45:57;99996.53;;;14.45;45.22
26711;BME280;18311;52.754;18.118;2023-01-31T13:48:36;99995.30;;;15.15;44.60
26711;BME280;18311;52.754;18.118;2023-01-31T13:56:35;100001.98;;;13.76;46.98
26711;BME280;18311;52.754;18.118;2023-01-31T13:59:08;99992.45;;;14.52;46.52
26711;BME280;18311;52.754;18.118;2023-01-31T14:01:47;99985.39;;;14.77;45.63
26711;BME280;18311;52.754;18.118;2023-01-31T14:04:21;99981.30;;;14.84;45.36
26711;BME280;18311;52.754;18.118;2023-01-31T14:06:54;99982.16;;;14.85;45.33
26711;BME280;18311;52.754;18.118;2023-01-31T14:14:52;99966.44;;;15.54;44.29
26711;BME280;18311;52.754;18.118;2023-01-31T14:20:13;99956.10;;;14.72;46.06
26711;BME280;18311;52.754;18.118;2023-01-31T14:22:39;99952.40;;;14.48;46.84
26711;BME280;18311;52.754;18.118;2023-01-31T14:25:14;99957.16;;;14.96;45.73
26711;BME280;18311;52.754;18.118;2023-01-31T14:30:39;99942.43;;;14.10;47.15
26711;BME280;18311;52.754;18.118;2023-01-31T14:39:11;99939.00;;;14.73;46.84
26711;BME280;18311;52.754;18.118;2023-01-31T14:55:47;99943.23;;;13.85;48.92
26711;BME280;18311;52.754;18.118;2023-01-31T14:58:17;99934.06;;;13.33;50.94
26711;BME280;18311;52.754;18.118;2023-01-31T15:00:54;99922.95;;;13.25;50.84
26711;BME280;18311;52.754;18.118;2023-01-31T15:03:23;99924.58;;;13.69;50.89
26711;BME280;18311;52.754;18.118;2023-01-31T15:06:05;99929.87;;;12.85;52.58
26711;BME280;18311;52.754;18.118;2023-01-31T15:08:30;99928.78;;;13.46;53.93
26711;BME280;18311;52.754;18.118;2023-01-31T15:13:59;99942.77;;;13.51;54.81
26711;BME280;18311;52.754;18.118;2023-01-31T15:16:35;99925.16;;;13.87;57.27
26711;BME280;18311;52.754;18.118;2023-01-31T15:19:19;99919.59;;;13.35;58.33
26711;BME280;18311;52.754;18.118;2023-01-31T15:21:55;99911.34;;;13.66;57.74
26711;BME280;18311;52.754;18.118;2023-01-31T15:24:40;99909.98;;;15.16;53.02
26711;BME280;18311;52.754;18.118;2023-01-31T15:27:20;99917.17;;;13.72;55.85
26711;BME280;18311;52.754;18.118;2023-01-31T15:32:45;99923.97;;;13.51;58.64
26711;BME280;18311;52.754;18.118;2023-01-31T15:38:09;99909.87;;;13.74;59.02
26711;BME280;18311;52.754;18.118;2023-01-31T15:40:36;99907.42;;;14.37;57.95
26711;BME280;18311;52.754;18.118;2023-01-31T15:43:21;99919.95;;;13.71;59.95
26711;BME280;18311;52.754;18.118;2023-01-31T15:45:52;99913.52;;;13.46;62.74